Terminal Aerodrome Forecast
Issued by NWS

Home | Current Version | Previous Version | Text Only | Print | Product List | Glossary On
Versions: 1 2 3 4 5 6 7 8 9 10 11 12 13 14 15 16 17 18
000
FTUS43 KMQT 270530
TAFCMX
TAF
KCMX 270530Z 2706/2806 01006KT 6SM -SHRA BKN011
     FM270800 32010KT 1/2SM -DZ FG VV002
     FM271400 29014G21KT P6SM SCT002 BKN006
     FM271600 29013KT P6SM BKN060
     FM280000 VRB03KT P6SM SCT070=

USA.gov is the U.S. government's official web portal to all federal, state and local government web resources and services.